VIV409 SEGU-MMMX
Flight info
| Callsign | VIV409 |
|---|---|
| Flight time | N/A |
| Altitude | 36000 |
| Route | RENAR2A RENAR UL207 LIXAS UL203 ALSAL/N0445F380 UL318 IZT UT157 LARLO LARLO3B |
| Aircraft | A320/M-SDE3FGHIRWY/LB1 |
Departure
| Time | 2026-04-24 13:00 |
|---|---|
| Airport | José Joaquín de Olmedo International Airport (SEGU) |
Arrival
| Time | N/A |
|---|---|
| Airport | Mexico City Benito Juárez International Airport (MMMX) |
| Time | Latitude | Longitude | Altitude | Speed | Heading |
|---|---|---|---|---|---|
| 2026-04-24 12:18 | -2.14746 | -79.88283 | 29 ft | 0 kts | 259° |
| 2026-04-24 12:39 | -2.14744 | -79.88250 | 28 ft | 4 kts | 278° |
| 2026-04-24 12:39 | -2.14751 | -79.88225 | 28 ft | 4 kts | 296° |
| 2026-04-24 12:39 | -2.14764 | -79.88202 | 28 ft | 4 kts | 304° |
| 2026-04-24 12:40 | -2.14773 | -79.88188 | 28 ft | 4 kts | 289° |
| 2026-04-24 12:40 | -2.14776 | -79.88179 | 28 ft | 4 kts | 261° |
| 2026-04-24 12:55 | -2.14775 | -79.88175 | 28 ft | 0 kts | 243° |
| 2026-04-24 12:57 | -2.14776 | -79.88175 | 28 ft | 0 kts | 237° |
| 2026-04-24 12:57 | -2.14778 | -79.88175 | 28 ft | 0 kts | 220° |
| 2026-04-24 12:57 | -2.14781 | -79.88173 | 28 ft | 1 kts | 173° |
| 2026-04-24 12:57 | -2.14783 | -79.88167 | 28 ft | 2 kts | 120° |
| 2026-04-24 12:58 | -2.14798 | -79.88138 | 28 ft | 7 kts | 116° |
| 2026-04-24 12:58 | -2.14831 | -79.88079 | 29 ft | 12 kts | 117° |
| 2026-04-24 12:58 | -2.14786 | -79.88005 | 29 ft | 16 kts | 31° |
| 2026-04-24 12:58 | -2.14680 | -79.87934 | 28 ft | 21 kts | 48° |
| 2026-04-24 12:59 | -2.14645 | -79.87787 | 28 ft | 23 kts | 108° |
| 2026-04-24 12:59 | -2.14726 | -79.87782 | 27 ft | 11 kts | 206° |
| 2026-04-24 12:59 | -2.14860 | -79.87856 | 28 ft | 47 kts | 209° |
| 2026-04-24 12:59 | -2.15346 | -79.88135 | 27 ft | 111 kts | 210° |
| 2026-04-24 13:00 | -2.16149 | -79.88596 | 41 ft | 156 kts | 209° |
| 2026-04-24 13:00 | -2.17109 | -79.89130 | 589 ft | 158 kts | 209° |
| 2026-04-24 13:00 | -2.18090 | -79.89675 | 1106 ft | 162 kts | 209° |
| 2026-04-24 13:00 | -2.19096 | -79.90239 | 1527 ft | 173 kts | 209° |
| 2026-04-24 13:01 | -2.20216 | -79.90871 | 1732 ft | 195 kts | 210° |
| 2026-04-24 13:01 | -2.21467 | -79.91575 | 1927 ft | 217 kts | 209° |
| 2026-04-24 13:01 | -2.22825 | -79.92411 | 2148 ft | 242 kts | 221° |
| 2026-04-24 13:01 | -2.23702 | -79.93898 | 2546 ft | 260 kts | 261° |
| 2026-04-24 13:02 | -2.23491 | -79.95693 | 3226 ft | 267 kts | 296° |
| 2026-04-24 13:02 | -2.22286 | -79.97094 | 3963 ft | 270 kts | 325° |
| 2026-04-24 13:02 | -2.20614 | -79.97961 | 4760 ft | 273 kts | 338° |
| 2026-04-24 13:02 | -2.18848 | -79.98699 | 5517 ft | 277 kts | 338° |
| 2026-04-24 13:03 | -2.17050 | -79.99439 | 6251 ft | 281 kts | 338° |
| 2026-04-24 13:03 | -2.15226 | -80.00185 | 6938 ft | 285 kts | 338° |
| 2026-04-24 13:03 | -2.13373 | -80.00938 | 7632 ft | 289 kts | 338° |
| 2026-04-24 13:03 | -2.11502 | -80.01695 | 8348 ft | 291 kts | 338° |
| 2026-04-24 13:04 | -2.09615 | -80.02462 | 9062 ft | 294 kts | 337° |
| 2026-04-24 13:04 | -2.07712 | -80.03236 | 9764 ft | 297 kts | 337° |
| 2026-04-24 13:04 | -2.05783 | -80.04022 | 10244 ft | 307 kts | 337° |
| 2026-04-24 13:04 | -2.03760 | -80.04845 | 10368 ft | 329 kts | 337° |
| 2026-04-24 13:05 | -2.01586 | -80.05730 | 10606 ft | 344 kts | 337° |
| 2026-04-24 13:05 | -1.99350 | -80.06638 | 11103 ft | 349 kts | 337° |
| 2026-04-24 13:05 | -1.97087 | -80.07554 | 11657 ft | 353 kts | 337° |
| 2026-04-24 13:05 | -1.94802 | -80.08479 | 12212 ft | 356 kts | 337° |
| 2026-04-24 13:06 | -1.92497 | -80.09416 | 12753 ft | 359 kts | 337° |
| 2026-04-24 13:06 | -1.90169 | -80.10362 | 13286 ft | 363 kts | 337° |
| 2026-04-24 13:06 | -1.87823 | -80.11317 | 13806 ft | 366 kts | 337° |
| 2026-04-24 13:06 | -1.85455 | -80.12281 | 14285 ft | 368 kts | 337° |
| 2026-04-24 13:07 | -1.83074 | -80.13252 | 14778 ft | 370 kts | 337° |
| 2026-04-24 13:07 | -1.80681 | -80.14228 | 15267 ft | 372 kts | 337° |
| 2026-04-24 13:07 | -1.78274 | -80.15210 | 15765 ft | 375 kts | 337° |
| 2026-04-24 13:07 | -1.75853 | -80.16194 | 16241 ft | 377 kts | 337° |
| 2026-04-24 13:08 | -1.73416 | -80.17182 | 16724 ft | 379 kts | 337° |
| 2026-04-24 13:08 | -1.70964 | -80.18174 | 17208 ft | 381 kts | 338° |
| 2026-04-24 13:08 | -1.68503 | -80.19170 | 17683 ft | 383 kts | 338° |
| 2026-04-24 13:09 | -1.63536 | -80.21186 | 18563 ft | 387 kts | 338° |
| 2026-04-24 13:09 | -1.61030 | -80.22204 | 18960 ft | 390 kts | 338° |
| 2026-04-24 13:09 | -1.58511 | -80.23229 | 19358 ft | 392 kts | 337° |
| 2026-04-24 13:09 | -1.56080 | -80.24481 | 19751 ft | 395 kts | 327° |
| 2026-04-24 13:10 | -1.53791 | -80.26013 | 20137 ft | 397 kts | 327° |
| 2026-04-24 13:10 | -1.51490 | -80.27554 | 20525 ft | 400 kts | 327° |
| 2026-04-24 13:10 | -1.49172 | -80.29099 | 20924 ft | 402 kts | 327° |
| 2026-04-24 13:10 | -1.46832 | -80.30653 | 21309 ft | 404 kts | 327° |
| 2026-04-24 13:11 | -1.44481 | -80.32216 | 21690 ft | 407 kts | 327° |
| 2026-04-24 13:11 | -1.42120 | -80.33788 | 22062 ft | 409 kts | 327° |
| 2026-04-24 13:11 | -1.39745 | -80.35369 | 22433 ft | 412 kts | 328° |
| 2026-04-24 13:11 | -1.37356 | -80.36961 | 22808 ft | 414 kts | 328° |
| 2026-04-24 13:12 | -1.34984 | -80.38543 | 23147 ft | 416 kts | 328° |
| 2026-04-24 13:12 | -1.32533 | -80.40174 | 23505 ft | 419 kts | 328° |
| 2026-04-24 13:12 | -1.30100 | -80.41792 | 23799 ft | 421 kts | 328° |
| 2026-04-24 13:12 | -1.27653 | -80.43420 | 24090 ft | 424 kts | 328° |
| 2026-04-24 13:13 | -1.25226 | -80.45037 | 24370 ft | 426 kts | 328° |
| 2026-04-24 13:13 | -1.22755 | -80.46683 | 24644 ft | 428 kts | 328° |
| 2026-04-24 13:13 | -1.20266 | -80.48339 | 24917 ft | 431 kts | 328° |
| 2026-04-24 13:13 | -1.17763 | -80.50002 | 25194 ft | 433 kts | 328° |
| 2026-04-24 13:14 | -1.15251 | -80.51672 | 25469 ft | 435 kts | 328° |
| 2026-04-24 13:14 | -1.12723 | -80.53358 | 25744 ft | 437 kts | 328° |
| 2026-04-24 13:14 | -1.10184 | -80.55052 | 26018 ft | 440 kts | 328° |
| 2026-04-24 13:14 | -1.07634 | -80.56753 | 26288 ft | 442 kts | 329° |
| 2026-04-24 13:15 | -1.05067 | -80.58462 | 26546 ft | 444 kts | 329° |
| 2026-04-24 13:15 | -1.02487 | -80.60178 | 26797 ft | 446 kts | 329° |
| 2026-04-24 13:15 | -0.99897 | -80.61899 | 27051 ft | 449 kts | 329° |
| 2026-04-24 13:15 | -0.97291 | -80.63632 | 27305 ft | 451 kts | 329° |
| 2026-04-24 13:16 | -0.94678 | -80.65381 | 27570 ft | 453 kts | 327° |
| 2026-04-24 13:16 | -0.92235 | -80.67394 | 27821 ft | 459 kts | 318° |
| 2026-04-24 13:16 | -0.89968 | -80.69662 | 28062 ft | 461 kts | 317° |
| 2026-04-24 13:16 | -0.87700 | -80.71942 | 28324 ft | 464 kts | 317° |
| 2026-04-24 13:17 | -0.85424 | -80.74234 | 28584 ft | 466 kts | 317° |
| 2026-04-24 13:17 | -0.83135 | -80.76537 | 28872 ft | 467 kts | 317° |
| 2026-04-24 13:17 | -0.80876 | -80.78811 | 29254 ft | 467 kts | 317° |
| 2026-04-24 13:17 | -0.78588 | -80.81109 | 29628 ft | 466 kts | 317° |
| 2026-04-24 13:18 | -0.76299 | -80.83405 | 29985 ft | 466 kts | 318° |
| 2026-04-24 13:18 | -0.74004 | -80.85701 | 30309 ft | 466 kts | 318° |
| 2026-04-24 13:18 | -0.71712 | -80.87994 | 30630 ft | 466 kts | 318° |
| 2026-04-24 13:18 | -0.69422 | -80.90287 | 30941 ft | 466 kts | 318° |
| 2026-04-24 13:19 | -0.67133 | -80.92581 | 31312 ft | 465 kts | 318° |
| 2026-04-24 13:19 | -0.64844 | -80.94878 | 31652 ft | 465 kts | 318° |
| 2026-04-24 13:19 | -0.62561 | -80.97171 | 31970 ft | 465 kts | 318° |
| 2026-04-24 13:19 | -0.60282 | -80.99464 | 32304 ft | 465 kts | 318° |
| 2026-04-24 13:20 | -0.58033 | -81.01724 | 32626 ft | 465 kts | 318° |
| 2026-04-24 13:20 | -0.55754 | -81.04014 | 32957 ft | 465 kts | 318° |
| 2026-04-24 13:20 | -0.53471 | -81.06307 | 33286 ft | 465 kts | 318° |
| 2026-04-24 13:20 | -0.51193 | -81.08594 | 33597 ft | 465 kts | 318° |
| 2026-04-24 13:21 | -0.48913 | -81.10881 | 33910 ft | 464 kts | 319° |
| 2026-04-24 13:21 | -0.46633 | -81.13166 | 34183 ft | 464 kts | 319° |
| 2026-04-24 13:21 | -0.44351 | -81.15452 | 34460 ft | 464 kts | 319° |
| 2026-04-24 13:21 | -0.42074 | -81.17735 | 34738 ft | 463 kts | 318° |
| 2026-04-24 13:22 | -0.39805 | -81.20011 | 35020 ft | 462 kts | 318° |
| 2026-04-24 13:22 | -0.37539 | -81.22290 | 35300 ft | 461 kts | 318° |
| 2026-04-24 13:22 | -0.35281 | -81.24559 | 35574 ft | 460 kts | 318° |
| 2026-04-24 13:22 | -0.33027 | -81.26825 | 35844 ft | 459 kts | 318° |
| 2026-04-24 13:23 | -0.30805 | -81.29058 | 35973 ft | 459 kts | 318° |
| 2026-04-24 13:23 | -0.28537 | -81.31333 | 36002 ft | 464 kts | 318° |
| 2026-04-24 13:23 | -0.23905 | -81.35966 | 36001 ft | 476 kts | 318° |
| 2026-04-24 13:24 | -0.19162 | -81.40708 | 36001 ft | 488 kts | 318° |
| 2026-04-24 13:24 | -0.14338 | -81.45558 | 36000 ft | 493 kts | 318° |
| 2026-04-24 13:25 | -0.09424 | -81.50349 | 36001 ft | 493 kts | 320° |
| 2026-04-24 13:25 | -0.04449 | -81.55011 | 36000 ft | 493 kts | 320° |
| 2026-04-24 13:26 | 0.00567 | -81.59698 | 36003 ft | 493 kts | 320° |
| 2026-04-24 13:26 | 0.05553 | -81.64414 | 36011 ft | 493 kts | 319° |
| 2026-04-24 13:27 | 0.10524 | -81.69150 | 36015 ft | 493 kts | 319° |
| 2026-04-24 13:27 | 0.15463 | -81.73853 | 36016 ft | 493 kts | 319° |
| 2026-04-24 13:28 | 0.20433 | -81.78576 | 36014 ft | 493 kts | 319° |
| 2026-04-24 13:28 | 0.25399 | -81.83286 | 36010 ft | 492 kts | 319° |
| 2026-04-24 13:29 | 0.30362 | -81.87997 | 36009 ft | 492 kts | 319° |
| 2026-04-24 13:29 | 0.35332 | -81.92713 | 36009 ft | 492 kts | 319° |
| 2026-04-24 13:30 | 0.40301 | -81.97428 | 36007 ft | 492 kts | 319° |
| 2026-04-24 13:30 | 0.45237 | -82.02104 | 36011 ft | 491 kts | 319° |
| 2026-04-24 13:31 | 0.50192 | -82.06806 | 36005 ft | 491 kts | 319° |
| 2026-04-24 13:31 | 0.55139 | -82.11507 | 36004 ft | 491 kts | 319° |
| 2026-04-24 13:32 | 0.60091 | -82.16214 | 36004 ft | 491 kts | 319° |
| 2026-04-24 13:32 | 0.65042 | -82.20913 | 36001 ft | 490 kts | 319° |
| 2026-04-24 13:33 | 0.69147 | -82.24807 | 35999 ft | 490 kts | 319° |
| 2026-04-24 13:33 | 0.74097 | -82.29503 | 36000 ft | 491 kts | 319° |
| 2026-04-24 13:34 | 0.79043 | -82.34200 | 36011 ft | 490 kts | 318° |
| 2026-04-24 13:34 | 0.83985 | -82.38894 | 36019 ft | 490 kts | 318° |